Klar, wolkenlos
Klar, wolkenlos
Klar, wolkenlos
Klar, wolkenlos
Klar, wolkenlos
Klar, vereinzelt Cirrus-Wolken
Klar, vereinzelt Cirrus-Wolken
(°C)
19°
18°
17°
16°
15°
14°
14°
(°C)
14°
14°
13°
13°
13°
12°
11°
NW
NW
NW
NNW
N
NNO
NO
(km/h)
14-23
14-23
11-21
9-17
7-14
6-12
6-9
(mm)
0
0
0
0
0
0
0
(%)
0
0
0
0
0
0
0

Sonnenhöhe

/ 17.5°
sun-icon
UV 4
06:37
17:27
Abnehmender Mond (199°)
19:23
07:59

METAR für San Diego (KSAN)

Zeit Bedingungen Temperatur/
Taupunkt
Wind Sichtweite Wetter Wolken Druck Änderung Roh
VFR 19.4°C / -1.7°C 300º 7kt >10km - Clear 1023 - KSAN 072251Z 30007KT 10SM CLR 19/M02 A3023 RMK AO2 SLP235 T01941017 $
VFR 19.4°C / -1.1°C 300º 8kt >10km - Clear 1023 - KSAN 072151Z 30008KT 10SM CLR 19/M01 A3022 RMK AO2 SLP234 T01941011 $
VFR 18.9°C / 6.1°C 300º 9kt >10km - Clear 1023 - KSAN 072051Z 30009KT 10SM CLR 19/06 A3024 RMK AO2 SLP239 T01890061 58016 $
VFR 20°C / -3.9°C 220º 6kt >10km - Clear 1024 - KSAN 071951Z 22006KT 10SM CLR 20/M04 A3026 RMK AO2 SLP246 T02001039 $
VFR 18.9°C / -3.9°C 220º 4kt >10km - Clear 1025 - KSAN 071851Z 22004KT 10SM CLR 19/M04 A3028 RMK AO2 SLP252 T01891039 $
VFR 17.2°C / -1.7°C 160º 3kt >10km - Few Clouds 20000ft 1025 - KSAN 071751Z 16003KT 10SM FEW200 17/M02 A3029 RMK AO2 SLP255 T01721017 10172 20061 50006 $
VFR 13.9°C / 1.7°C variable 0kt >10km - Clear 1025 - KSAN 071651Z 00000KT 10SM CLR 14/02 A3029 RMK AO2 SLP258 T01390017
VFR 10°C / 2.8°C variable 0kt >10km - Few Clouds 6000ft
Few Clouds 20000ft
1025 - KSAN 071551Z 00000KT 10SM FEW060 FEW200 10/03 A3029 RMK AO2 SLP255 T01000028
VFR 6.7°C / 1.7°C variable 0kt >10km - Few Clouds 20000ft 1024 - KSAN 071451Z 00000KT 10SM FEW200 07/02 A3027 RMK AO2 SLP249 T00670017 53017 $
VFR 7.2°C / 2.2°C variable 0kt >10km - Clear 1024 - KSAN 071351Z 00000KT 10SM CLR 07/02 A3025 RMK AO2 SLP241 T00720022 $
VFR 6.1°C / 2.2°C variable 0kt >10km - Clear 1023 - KSAN 071251Z 00000KT 10SM CLR 06/02 A3023 RMK AO2 SLP235 T00610022 $
VFR 6.7°C / 3.3°C 310º 4kt >10km - Clear 1023 - KSAN 071151Z 31004KT 10SM CLR 07/03 A3022 RMK AO2 SLP232 T00670033 10122 20067 58001 $
VFR 7.8°C / 3.3°C variable 0kt >10km - Clear 1023 - KSAN 071051Z 00000KT 10SM CLR 08/03 A3022 RMK AO2 SLP234 T00780033 $
VFR 8.3°C / 3.9°C variable 0kt >10km - Clear 1023 - KSAN 070951Z 00000KT 10SM CLR 08/04 A3023 RMK AO2 SLP235 T00830039
VFR 8.9°C / 5°C 20º 3kt >10km - Clear 1023 - KSAN 070851Z 02003KT 10SM CLR 09/05 A3022 RMK AO2 SLP232 T00890050 50002
VFR 10°C / 5°C variable 0kt >10km - Clear 1023 - KSAN 070751Z 00000KT 10SM CLR 10/05 A3022 RMK AO2 SLP233 T01000050 401830094
VFR 11.1°C / 6.1°C variable 0kt >10km - Clear 1023 - KSAN 070651Z 00000KT 10SM CLR 11/06 A3022 RMK AO2 SLP233 T01110061
VFR 12.2°C / 7.2°C variable 0kt >10km - Clear 1023 - KSAN 070551Z 00000KT 10SM CLR 12/07 A3021 RMK AO2 SLP230 T01220072 10172 20122 53012
VFR 13.3°C / 7.2°C variable 0kt >10km - Clear 1022 - KSAN 070451Z 00000KT 10SM CLR 13/07 A3020 RMK AO2 SLP225 T01330072
VFR 13.9°C / 6.7°C 360º 7kt >10km - Clear 1022 - KSAN 070351Z 36007KT 10SM CLR 14/07 A3018 RMK AO2 SLP220 T01390067
VFR 14.4°C / 7.2°C 360º 8kt >10km - Clear 1021 - KSAN 070251Z 36008KT 10SM CLR 14/07 A3018 RMK AO2 SLP218 T01440072 53007
VFR 15°C / 5.6°C 330º 6kt >10km - Clear 1021 - KSAN 070151Z 33006KT 10SM CLR 15/06 A3016 RMK AO2 SLP213 T01500056
VFR 16.7°C / 3.9°C 330º 6kt >10km - Few Clouds 25000ft 1021 - KSAN 070051Z 33006KT 10SM FEW250 17/04 A3016 RMK AO2 SLP213 T01670039
VFR 17.2°C / 5°C 340º 11kt Gust 15kt >10km - Clear 1021 - KSAN 062351Z 34011G15KT 10SM CLR 17/05 A3016 RMK AO2 SLP211 T01720050 10183 20156 56008

VFR

19.4°C / -1.7°C

[Mehr]
Wind 300º 7kt
Sichtweite >10km
Wetter -
Wolken Clear
Druck 1023
Änderung -
Roh KSAN 072251Z 30007KT 10SM CLR 19/M02 A3023 RMK AO2 SLP235 T01941017 $

VFR

19.4°C / -1.1°C

[Mehr]
Wind 300º 8kt
Sichtweite >10km
Wetter -
Wolken Clear
Druck 1023
Änderung -
Roh KSAN 072151Z 30008KT 10SM CLR 19/M01 A3022 RMK AO2 SLP234 T01941011 $

VFR

18.9°C / 6.1°C

[Mehr]
Wind 300º 9kt
Sichtweite >10km
Wetter -
Wolken Clear
Druck 1023
Änderung -
Roh KSAN 072051Z 30009KT 10SM CLR 19/06 A3024 RMK AO2 SLP239 T01890061 58016 $

VFR

20°C / -3.9°C

[Mehr]
Wind 220º 6kt
Sichtweite >10km
Wetter -
Wolken Clear
Druck 1024
Änderung -
Roh KSAN 071951Z 22006KT 10SM CLR 20/M04 A3026 RMK AO2 SLP246 T02001039 $

VFR

18.9°C / -3.9°C

[Mehr]
Wind 220º 4kt
Sichtweite >10km
Wetter -
Wolken Clear
Druck 1025
Änderung -
Roh KSAN 071851Z 22004KT 10SM CLR 19/M04 A3028 RMK AO2 SLP252 T01891039 $

VFR

17.2°C / -1.7°C

[Mehr]
Wind 160º 3kt
Sichtweite >10km
Wetter -
Wolken Few Clouds 20000ft
Druck 1025
Änderung -
Roh KSAN 071751Z 16003KT 10SM FEW200 17/M02 A3029 RMK AO2 SLP255 T01721017 10172 20061 50006 $

VFR

13.9°C / 1.7°C

[Mehr]
Wind variable 0kt
Sichtweite >10km
Wetter -
Wolken Clear
Druck 1025
Änderung -
Roh KSAN 071651Z 00000KT 10SM CLR 14/02 A3029 RMK AO2 SLP258 T01390017

VFR

10°C / 2.8°C

[Mehr]
Wind variable 0kt
Sichtweite >10km
Wetter -
Wolken Few Clouds 6000ft
Few Clouds 20000ft
Druck 1025
Änderung -
Roh KSAN 071551Z 00000KT 10SM FEW060 FEW200 10/03 A3029 RMK AO2 SLP255 T01000028

VFR

6.7°C / 1.7°C

[Mehr]
Wind variable 0kt
Sichtweite >10km
Wetter -
Wolken Few Clouds 20000ft
Druck 1024
Änderung -
Roh KSAN 071451Z 00000KT 10SM FEW200 07/02 A3027 RMK AO2 SLP249 T00670017 53017 $

VFR

7.2°C / 2.2°C

[Mehr]
Wind variable 0kt
Sichtweite >10km
Wetter -
Wolken Clear
Druck 1024
Änderung -
Roh KSAN 071351Z 00000KT 10SM CLR 07/02 A3025 RMK AO2 SLP241 T00720022 $

VFR

6.1°C / 2.2°C

[Mehr]
Wind variable 0kt
Sichtweite >10km
Wetter -
Wolken Clear
Druck 1023
Änderung -
Roh KSAN 071251Z 00000KT 10SM CLR 06/02 A3023 RMK AO2 SLP235 T00610022 $

VFR

6.7°C / 3.3°C

[Mehr]
Wind 310º 4kt
Sichtweite >10km
Wetter -
Wolken Clear
Druck 1023
Änderung -
Roh KSAN 071151Z 31004KT 10SM CLR 07/03 A3022 RMK AO2 SLP232 T00670033 10122 20067 58001 $

VFR

7.8°C / 3.3°C

[Mehr]
Wind variable 0kt
Sichtweite >10km
Wetter -
Wolken Clear
Druck 1023
Änderung -
Roh KSAN 071051Z 00000KT 10SM CLR 08/03 A3022 RMK AO2 SLP234 T00780033 $

VFR

8.3°C / 3.9°C

[Mehr]
Wind variable 0kt
Sichtweite >10km
Wetter -
Wolken Clear
Druck 1023
Änderung -
Roh KSAN 070951Z 00000KT 10SM CLR 08/04 A3023 RMK AO2 SLP235 T00830039

VFR

8.9°C / 5°C

[Mehr]
Wind 20º 3kt
Sichtweite >10km
Wetter -
Wolken Clear
Druck 1023
Änderung -
Roh KSAN 070851Z 02003KT 10SM CLR 09/05 A3022 RMK AO2 SLP232 T00890050 50002

VFR

10°C / 5°C

[Mehr]
Wind variable 0kt
Sichtweite >10km
Wetter -
Wolken Clear
Druck 1023
Änderung -
Roh KSAN 070751Z 00000KT 10SM CLR 10/05 A3022 RMK AO2 SLP233 T01000050 401830094

VFR

11.1°C / 6.1°C

[Mehr]
Wind variable 0kt
Sichtweite >10km
Wetter -
Wolken Clear
Druck 1023
Änderung -
Roh KSAN 070651Z 00000KT 10SM CLR 11/06 A3022 RMK AO2 SLP233 T01110061

VFR

12.2°C / 7.2°C

[Mehr]
Wind variable 0kt
Sichtweite >10km
Wetter -
Wolken Clear
Druck 1023
Änderung -
Roh KSAN 070551Z 00000KT 10SM CLR 12/07 A3021 RMK AO2 SLP230 T01220072 10172 20122 53012

VFR

13.3°C / 7.2°C

[Mehr]
Wind variable 0kt
Sichtweite >10km
Wetter -
Wolken Clear
Druck 1022
Änderung -
Roh KSAN 070451Z 00000KT 10SM CLR 13/07 A3020 RMK AO2 SLP225 T01330072

VFR

13.9°C / 6.7°C

[Mehr]
Wind 360º 7kt
Sichtweite >10km
Wetter -
Wolken Clear
Druck 1022
Änderung -
Roh KSAN 070351Z 36007KT 10SM CLR 14/07 A3018 RMK AO2 SLP220 T01390067

VFR

14.4°C / 7.2°C

[Mehr]
Wind 360º 8kt
Sichtweite >10km
Wetter -
Wolken Clear
Druck 1021
Änderung -
Roh KSAN 070251Z 36008KT 10SM CLR 14/07 A3018 RMK AO2 SLP218 T01440072 53007

VFR

15°C / 5.6°C

[Mehr]
Wind 330º 6kt
Sichtweite >10km
Wetter -
Wolken Clear
Druck 1021
Änderung -
Roh KSAN 070151Z 33006KT 10SM CLR 15/06 A3016 RMK AO2 SLP213 T01500056

VFR

16.7°C / 3.9°C

[Mehr]
Wind 330º 6kt
Sichtweite >10km
Wetter -
Wolken Few Clouds 25000ft
Druck 1021
Änderung -
Roh KSAN 070051Z 33006KT 10SM FEW250 17/04 A3016 RMK AO2 SLP213 T01670039

VFR

17.2°C / 5°C

[Mehr]
Wind 340º 11kt Gust 15kt
Sichtweite >10km
Wetter -
Wolken Clear
Druck 1021
Änderung -
Roh KSAN 062351Z 34011G15KT 10SM CLR 17/05 A3016 RMK AO2 SLP211 T01720050 10183 20156 56008

TAF für San Diego (KSAN)

From till


From till Wind 300º 8kt. Visibility 10km or more. Sky Clear.
From till Wind variable 4kt. Visibility 10km or more. Few Clouds 25000ft.
From till Wind 300º 9kt. Visibility 10km or more. Scattered Clouds 25000ft.
From till Wind 310º 5kt. Visibility 10km or more. Few Clouds 25000ft.

Roh: KSAN 072320Z 0800/0906 30008KT P6SM SKC FM080200 VRB04KT P6SM FEW250 FM082100 30009KT P6SM SCT250 FM090100 31005KT P6SM FEW250

Radar- und Niederschlags-Nowcast für San Diego

Nieselregen
Leicht
Moderat
Stark
Sehr schwer
Hagel

Die Ortsmarkierung zeigt auf San Diego. Nieselregen und leichter Schneefall können für das Radar unsichtbar sein. Die Niederschlagsintensität ist farbcodiert von Hellblau bis Orange.

Aktuelle Satellitenbilder für San Diego, Vereinigte Staaten

Die Standortmarkierung ist platziert auf San Diego. [Mehr]

Das Echtzeit-Satellitenbild kombiniert sichtbares Licht während des Tages mit Infrarotstrahlung während der Nacht. Nachts ist das Bild nicht dunkel, da Infrarotstrahlung Temperaturunterschiede erkennen kann. Leider sind niedrige Wolken und Nebel nur schwer von den Bodentemperaturen zu unterscheiden und können daher nachts fast unsichtbar sein. Meteosat-Satellitenbilder für Europa werden alle 5 Minuten in Echtzeit aktualisiert. Die Bilder GOES-16 / GOES-17 (Nord- und Südamerika) und Himawari (Asien) werden alle 10 Minuten aktualisiert.

Zum Anfang